Time;durP1;ratioP1;P1;durP2;ratioP2;P2;SDS_P1;SDS_P2;PMS_P1;PMS_P2;Temp;Humidity;BMP_temperature;BMP_pressure;BME280_temperature;BME280_humidity;BME280_pressure;Samples;Min_cycle;Max_cycle;Signal;HPM_P1;HPM_P2
2022/07/18 00:00:08;;;;;;;10.88;2.42;;;19.20;67.80;;;;;;5033359;28;20029;-77
2022/07/18 00:02:34;;;;;;;4.47;1.67;;;19.10;68.30;;;;;;5033362;28;20025;-76
2022/07/18 00:05:00;;;;;;;2.65;1.33;;;19.10;68.30;;;;;;5016439;28;20040;-76
2022/07/18 00:07:26;;;;;;;4.90;1.70;;;19.10;68.20;;;;;;5035047;28;20033;-77
2022/07/18 00:09:52;;;;;;;5.13;1.98;;;19.10;68.00;;;;;;5037786;28;20040;-75
2022/07/18 00:12:17;;;;;;;3.15;1.55;;;19.00;68.00;;;;;;5033353;28;20397;-77
2022/07/18 00:14:43;;;;;;;4.28;1.40;;;18.90;68.60;;;;;;5034935;28;20028;-76
2022/07/18 00:17:09;;;;;;;6.82;1.92;;;18.80;69.10;;;;;;5034724;28;20033;-76
2022/07/18 00:19:36;;;;;;;9.35;1.88;;;18.70;69.60;;;;;;5034733;28;20044;-77
2022/07/18 00:22:03;;;;;;;7.90;1.70;;;18.60;69.70;;;;;;5035438;28;20030;-77
2022/07/18 00:24:28;;;;;;;5.43;1.85;;;18.50;69.70;;;;;;5034248;28;20034;-76
2022/07/18 00:26:54;;;;;;;4.45;1.58;;;18.40;70.40;;;;;;5033072;28;20033;-77
2022/07/18 00:29:20;;;;;;;5.82;1.70;;;18.30;70.70;;;;;;5015218;28;20115;-76
2022/07/18 00:31:46;;;;;;;8.23;1.98;;;18.20;71.10;;;;;;5015494;28;20053;-76
2022/07/18 00:34:11;;;;;;;4.80;1.58;;;18.30;71.50;;;;;;5041601;28;20079;-76
2022/07/18 00:36:37;;;;;;;8.98;1.63;;;18.20;71.40;;;;;;5044258;28;20026;-77
2022/07/18 00:39:03;;;;;;;4.88;1.65;;;18.20;71.60;;;;;;5044206;28;20098;-77
2022/07/18 00:41:29;;;;;;;4.03;1.45;;;18.20;72.30;;;;;;5043813;28;20113;-77
2022/07/18 00:43:57;;;;;;;9.48;1.85;;;18.30;72.00;;;;;;5046128;28;20065;-76
2022/07/18 00:46:27;;;;;;;5.75;1.83;;;18.20;72.00;;;;;;5059383;28;20061;-76
2022/07/18 00:48:53;;;;;;;6.13;1.60;;;18.20;72.30;;;;;;5043882;28;20485;-75
2022/07/18 00:51:20;;;;;;;7.40;1.40;;;18.10;72.50;;;;;;5045092;28;20075;-77
2022/07/18 00:53:48;;;;;;;3.75;1.23;;;18.10;72.70;;;;;;5045868;28;20040;-76
2022/07/18 00:56:17;;;;;;;9.88;1.50;;;18.00;73.20;;;;;;5060308;28;20037;-76
2022/07/18 00:58:43;;;;;;;6.88;1.67;;;18.00;74.20;;;;;;5041432;28;20029;-76
2022/07/18 01:03:54;;;;;;;4.00;1.65;;;18.20;75.10;;;;;;5039311;28;20034;-76
2022/07/18 01:06:20;;;;;;;7.10;1.70;;;18.40;75.50;;;;;;5038999;28;20090;-75
2022/07/18 01:08:46;;;;;;;6.07;1.48;;;18.70;76.00;;;;;;5021776;28;20061;-77
2022/07/18 01:11:13;;;;;;;4.97;1.45;;;18.90;75.90;;;;;;5039294;28;20056;-78
2022/07/18 01:13:39;;;;;;;9.00;1.85;;;19.00;77.60;;;;;;5038802;28;20022;-77
2022/07/18 01:16:06;;;;;;;6.28;2.00;;;18.80;80.30;;;;;;5038877;28;20022;-76
2022/07/18 01:18:31;;;;;;;5.00;1.90;;;18.60;81.80;;;;;;5038749;28;20113;-76
2022/07/18 01:20:57;;;;;;;3.45;1.58;;;18.40;84.10;;;;;;5038821;28;20445;-77
2022/07/18 01:23:23;;;;;;;5.00;1.20;;;18.20;83.70;;;;;;5021486;28;20369;-76
2022/07/18 01:25:49;;;;;;;4.18;1.80;;;18.10;85.00;;;;;;5039914;28;20443;-76
2022/07/18 01:28:15;;;;;;;4.68;1.58;;;18.00;86.70;;;;;;5054122;28;20151;-76
2022/07/18 01:30:41;;;;;;;5.28;1.67;;;17.80;87.20;;;;;;5041499;28;20385;-77
2022/07/18 01:33:06;;;;;;;5.88;1.60;;;17.80;88.10;;;;;;5041094;28;20029;-77
2022/07/18 01:35:32;;;;;;;3.45;1.50;;;17.70;89.80;;;;;;5041939;28;20040;-77
2022/07/18 01:38:00;;;;;;;4.15;1.50;;;17.70;90.70;;;;;;5023777;28;20034;-76
2022/07/18 01:40:27;;;;;;;6.85;1.48;;;17.70;90.80;;;;;;5041062;28;20481;-76
2022/07/18 01:42:53;;;;;;;5.10;1.98;;;17.80;91.70;;;;;;5039246;28;20432;-76
2022/07/18 01:45:20;;;;;;;5.32;1.60;;;17.90;92.60;;;;;;5036172;28;20022;-77
2022/07/18 01:47:46;;;;;;;4.95;1.58;;;18.10;92.60;;;;;;5037114;28;20021;-76
2022/07/18 01:50:13;;;;;;;3.00;1.70;;;18.10;93.20;;;;;;5035626;28;20025;-76
2022/07/18 01:52:39;;;;;;;5.00;1.50;;;18.30;93.40;;;;;;5035660;28;20025;-75
2022/07/18 01:55:07;;;;;;;3.90;1.63;;;18.40;93.20;;;;;;5036586;28;20021;-77
2022/07/18 01:57:34;;;;;;;5.85;1.83;;;18.90;92.70;;;;;;5020568;28;20029;-77
2022/07/18 02:00:00;;;;;;;5.00;1.27;;;18.90;92.20;;;;;;5036645;28;20021;-78
2022/07/18 02:02:26;;;;;;;3.78;1.17;;;19.10;91.40;;;;;;5039184;28;20057;-77
2022/07/18 02:05:01;;;;;;;7.47;1.63;;;19.00;90.60;;;;;;5038189;28;20029;-77
2022/07/18 02:07:32;;;;;;;3.03;1.17;;;19.00;90.30;;;;;;5053085;28;20034;-78
2022/07/18 02:09:59;;;;;;;4.70;1.50;;;19.00;90.10;;;;;;5036339;28;20030;-76
2022/07/18 02:12:25;;;;;;;5.93;1.48;;;19.00;90.00;;;;;;5036615;28;20041;-77
2022/07/18 02:14:52;;;;;;;6.22;1.27;;;19.00;89.80;;;;;;5035633;28;20558;-75
2022/07/18 02:17:18;;;;;;;2.38;1.30;;;18.90;89.70;;;;;;5035153;28;20104;-77
2022/07/18 02:19:45;;;;;;;2.67;1.33;;;18.80;89.60;;;;;;5017374;28;20117;-77
2022/07/18 02:22:11;;;;;;;4.63;1.15;;;18.60;90.20;;;;;;5036145;28;20025;-76
2022/07/18 02:24:37;;;;;;;4.38;1.40;;;18.40;90.30;;;;;;5036610;28;20454;-77
2022/07/18 02:27:03;;;;;;;6.53;1.48;;;18.30;90.70;;;;;;5036510;28;20493;-76
2022/07/18 02:29:29;;;;;;;2.55;1.27;;;18.00;90.80;;;;;;5036680;28;20474;-76
2022/07/18 02:31:55;;;;;;;6.10;1.35;;;17.90;91.30;;;;;;5036443;28;20048;-76
2022/07/18 02:34:21;;;;;;;3.45;1.27;;;17.80;91.40;;;;;;5036589;28;20026;-77
2022/07/18 02:36:49;;;;;;;3.53;1.13;;;17.70;91.60;;;;;;5017437;28;20021;-77
2022/07/18 02:39:15;;;;;;;4.30;1.38;;;17.50;92.00;;;;;;5016785;28;20052;-76
2022/07/18 02:41:40;;;;;;;6.22;1.77;;;17.40;92.40;;;;;;5034923;28;20112;-76
2022/07/18 02:44:06;;;;;;;6.70;1.48;;;17.30;92.70;;;;;;5033740;28;20079;-76
2022/07/18 02:46:32;;;;;;;12.00;1.67;;;17.20;93.40;;;;;;5034232;28;20021;-76
2022/07/18 02:48:58;;;;;;;5.32;1.38;;;17.20;93.70;;;;;;5033799;28;20071;-76
2022/07/18 02:51:24;;;;;;;4.20;1.50;;;17.10;94.10;;;;;;5000788;28;20100;-77
2022/07/18 02:53:49;;;;;;;3.50;1.30;;;17.20;94.60;;;;;;5035105;28;20036;-78
2022/07/18 02:56:15;;;;;;;3.30;1.30;;;17.30;94.60;;;;;;5034271;28;20028;-77
2022/07/18 02:58:42;;;;;;;4.90;1.73;;;17.50;94.60;;;;;;5038199;28;20025;-78
2022/07/18 03:01:08;;;;;;;3.97;1.90;;;17.60;94.80;;;;;;5023391;28;20033;-77
2022/07/18 03:03:34;;;;;;;6.00;1.65;;;17.50;95.30;;;;;;5035021;28;20041;-77
2022/07/18 03:05:59;;;;;;;3.53;1.73;;;17.40;96.00;;;;;;5033843;28;20025;-75
2022/07/18 03:08:25;;;;;;;3.70;1.70;;;17.10;96.90;;;;;;5016289;28;20118;-76
2022/07/18 03:10:51;;;;;;;5.30;1.77;;;17.00;97.90;;;;;;5033629;28;20030;-76
2022/07/18 03:13:17;;;;;;;4.28;1.50;;;16.90;98.50;;;;;;5015996;28;20151;-77
2022/07/18 03:15:43;;;;;;;7.45;1.70;;;17.00;98.70;;;;;;5056072;22;20270;-80
2022/07/18 03:18:08;;;;;;;5.25;1.70;;;16.90;98.80;;;;;;5029291;28;20038;-83
2022/07/18 03:20:34;;;;;;;3.78;1.50;;;16.90;99.00;;;;;;5033844;28;20029;-80
2022/07/18 03:23:05;;;;;;;6.03;1.50;;;16.90;99.40;;;;;;5034902;28;20649;-82
2022/07/18 03:25:31;;;;;;;3.20;1.77;;;16.80;99.80;;;;;;5028025;28;20080;-83
2022/07/18 03:27:57;;;;;;;4.75;1.77;;;16.70;99.90;;;;;;5028317;28;20034;-82
2022/07/18 03:30:23;;;;;;;5.15;1.38;;;16.70;99.90;;;;;;5029470;28;20088;-81
2022/07/18 03:32:48;;;;;;;8.82;1.92;;;16.60;99.90;;;;;;5031203;28;20018;-81
2022/07/18 03:35:14;;;;;;;10.48;2.05;;;16.60;99.90;;;;;;5030596;28;20030;-82
2022/07/18 03:37:40;;;;;;;7.70;2.00;;;16.60;99.90;;;;;;5015736;28;20025;-81
2022/07/18 03:40:07;;;;;;;5.75;1.58;;;16.50;99.90;;;;;;5031273;28;20030;-81
2022/07/18 03:42:34;;;;;;;7.38;1.63;;;16.40;99.90;;;;;;5028598;28;20053;-83
2022/07/18 03:45:00;;;;;;;4.13;1.75;;;16.40;99.90;;;;;;5010464;28;20133;-82
2022/07/18 03:47:26;;;;;;;4.70;1.63;;;16.40;99.90;;;;;;5027642;28;20033;-84
2022/07/18 03:49:52;;;;;;;7.90;2.10;;;16.40;99.90;;;;;;5012365;28;20037;-81
2022/07/18 03:52:17;;;;;;;8.63;2.55;;;16.40;99.90;;;;;;4999990;28;20041;-79
2022/07/18 03:54:43;;;;;;;8.25;2.35;;;16.50;99.90;;;;;;5035801;28;20064;-82
2022/07/18 03:57:09;;;;;;;5.90;2.00;;;16.50;99.90;;;;;;5036287;28;20033;-81
2022/07/18 03:59:35;;;;;;;6.18;1.92;;;16.50;99.90;;;;;;5035201;28;20101;-83
2022/07/18 04:02:01;;;;;;;3.00;1.65;;;16.60;99.90;;;;;;5032861;28;20025;-85
2022/07/18 04:04:27;;;;;;;4.53;2.10;;;16.70;99.90;;;;;;5028322;28;20036;-83
2022/07/18 04:06:53;;;;;;;6.32;1.80;;;17.00;99.90;;;;;;5032620;28;20025;-80
2022/07/18 04:09:19;;;;;;;16.08;2.00;;;17.20;99.90;;;;;;5014837;28;20065;-84
2022/07/18 04:11:45;;;;;;;4.75;1.88;;;17.40;99.90;;;;;;5010534;28;20026;-83
2022/07/18 04:14:11;;;;;;;7.03;2.10;;;17.50;99.90;;;;;;5009285;28;20022;-83
2022/07/18 04:16:37;;;;;;;4.65;1.80;;;17.50;99.90;;;;;;5027227;28;20037;-82
2022/07/18 04:19:02;;;;;;;10.27;2.67;;;17.70;99.90;;;;;;5008892;28;20030;-84
2022/07/18 04:21:28;;;;;;;6.68;2.03;;;17.80;99.90;;;;;;4996994;28;20050;-82
2022/07/18 04:23:54;;;;;;;7.10;2.20;;;18.10;99.90;;;;;;5034765;28;20037;-80
2022/07/18 04:26:20;;;;;;;6.43;1.95;;;18.10;99.90;;;;;;5018014;28;20117;-84
2022/07/18 04:28:46;;;;;;;7.50;2.20;;;18.10;99.90;;;;;;5029539;28;20065;-81
2022/07/18 04:31:13;;;;;;;10.70;2.22;;;18.20;99.90;;;;;;5009140;28;20029;-83
2022/07/18 04:33:39;;;;;;;8.27;2.30;;;18.20;99.90;;;;;;5011424;28;20021;-84
2022/07/18 04:36:06;;;;;;;14.07;2.10;;;18.20;99.90;;;;;;5017200;28;20030;-85
2022/07/18 04:38:34;;;;;;;10.38;2.50;;;18.40;99.90;;;;;;5041110;28;20030;-83
2022/07/18 04:40:59;;;;;;;6.22;2.05;;;18.50;99.90;;;;;;5043765;28;20025;-83
2022/07/18 04:43:25;;;;;;;9.30;1.90;;;18.80;99.80;;;;;;5047294;28;20033;-83
2022/07/18 04:45:51;;;;;;;9.55;2.13;;;19.00;99.00;;;;;;5043749;28;20087;-83
2022/07/18 04:48:17;;;;;;;6.35;2.45;;;19.20;98.50;;;;;;5052429;28;20026;-81
2022/07/18 04:50:43;;;;;;;6.05;1.92;;;19.50;97.70;;;;;;5052745;28;20036;-82
2022/07/18 04:53:10;;;;;;;5.97;1.70;;;19.50;97.20;;;;;;5053169;28;20083;-82
2022/07/18 04:55:36;;;;;;;3.92;2.08;;;19.60;96.80;;;;;;5052866;28;20022;-85
2022/07/18 04:58:02;;;;;;;8.75;2.10;;;19.60;96.70;;;;;;5051368;28;20020;-84
2022/07/18 05:00:28;;;;;;;6.18;2.33;;;19.60;96.20;;;;;;5054039;28;20029;-83
2022/07/18 05:02:56;;;;;;;4.78;1.75;;;19.50;95.90;;;;;;5053955;28;20053;-81
2022/07/18 05:05:23;;;;;;;6.40;1.90;;;19.50;96.00;;;;;;5039428;28;20026;-84
2022/07/18 05:07:50;;;;;;;5.47;1.90;;;19.50;96.00;;;;;;5023225;28;20044;-84
2022/07/18 05:10:18;;;;;;;4.80;1.83;;;19.40;95.80;;;;;;5023042;28;20068;-84
2022/07/18 05:12:45;;;;;;;8.20;2.42;;;19.30;96.00;;;;;;5033672;28;20113;-82
2022/07/18 05:15:14;;;;;;;6.22;2.30;;;19.30;95.70;;;;;;5033168;28;20077;-83
2022/07/18 05:17:40;;;;;;;5.93;2.03;;;19.50;95.60;;;;;;5029610;28;20110;-84
2022/07/18 05:20:09;;;;;;;7.07;2.08;;;19.80;94.90;;;;;;5031813;28;20045;-82
2022/07/18 05:22:36;;;;;;;5.93;2.28;;;19.90;94.20;;;;;;5019103;28;20037;-84
2022/07/18 05:25:03;;;;;;;4.78;1.80;;;20.00;94.20;;;;;;5018675;28;20032;-83
2022/07/18 05:27:30;;;;;;;5.25;2.40;;;20.00;93.70;;;;;;5034770;28;20037;-82
2022/07/18 05:30:01;;;;;;;11.55;2.33;;;19.90;93.50;;;;;;5033056;28;20022;-85
2022/07/18 05:32:27;;;;;;;6.60;1.90;;;20.00;93.60;;;;;;5035628;28;20064;-83
2022/07/18 05:34:53;;;;;;;7.68;2.22;;;20.10;93.50;;;;;;5030530;28;20050;-83
2022/07/18 05:37:19;;;;;;;7.38;2.08;;;20.20;93.10;;;;;;5004042;28;20023;-83
2022/07/18 05:39:45;;;;;;;12.52;3.10;;;20.30;93.00;;;;;;5035945;28;20048;-81
2022/07/18 05:42:11;;;;;;;11.80;3.10;;;20.50;92.70;;;;;;5036273;28;20087;-84
2022/07/18 05:44:37;;;;;;;7.88;2.80;;;20.70;92.40;;;;;;5049377;28;20022;-83
2022/07/18 05:47:03;;;;;;;15.63;2.70;;;20.90;92.00;;;;;;5025346;28;20085;-83
2022/07/18 05:49:29;;;;;;;10.05;3.08;;;20.80;91.80;;;;;;5040709;28;20038;-84
2022/07/18 05:51:55;;;;;;;14.30;2.95;;;20.70;92.20;;;;;;5048078;28;20021;-84
2022/07/18 05:54:21;;;;;;;16.85;3.05;;;20.80;91.90;;;;;;5051812;28;20084;-83
2022/07/18 05:56:48;;;;;;;8.50;2.20;;;20.80;91.70;;;;;;5030386;28;20042;-83
2022/07/18 05:59:15;;;;;;;10.50;2.25;;;20.90;91.80;;;;;;5023977;28;20025;-84
2022/07/18 06:01:41;;;;;;;6.07;2.38;;;21.00;91.20;;;;;;5047289;28;20030;-83
2022/07/18 06:04:07;;;;;;;8.63;1.98;;;21.10;90.50;;;;;;5030798;28;20105;-85
2022/07/18 06:06:33;;;;;;;9.35;2.30;;;20.90;90.20;;;;;;5051067;28;20035;-83
2022/07/18 06:08:59;;;;;;;7.43;2.22;;;20.90;90.00;;;;;;5029505;28;20041;-85
2022/07/18 06:11:25;;;;;;;12.25;2.05;;;21.00;90.30;;;;;;5048531;28;20108;-83
2022/07/18 06:13:50;;;;;;;4.47;2.03;;;21.00;88.50;;;;;;5052116;28;20021;-82
2022/07/18 06:16:16;;;;;;;5.68;2.10;;;21.20;88.80;;;;;;5056313;28;20052;-84
2022/07/18 06:18:42;;;;;;;9.30;1.75;;;21.50;87.80;;;;;;5056102;28;20025;-84
2022/07/18 06:21:08;;;;;;;6.43;2.03;;;21.70;83.70;;;;;;5033290;28;20119;-84
2022/07/18 06:23:35;;;;;;;4.15;1.60;;;21.80;85.10;;;;;;5050285;28;20045;-85
2022/07/18 06:26:01;;;;;;;6.65;1.60;;;21.90;83.20;;;;;;5049618;28;20049;-85
2022/07/18 06:28:28;;;;;;;4.50;1.75;;;21.80;80.50;;;;;;5048714;28;20018;-82
2022/07/18 06:30:54;;;;;;;6.55;1.48;;;21.80;83.00;;;;;;5053192;28;20161;-84
2022/07/18 06:33:21;;;;;;;3.80;1.50;;;21.70;81.30;;;;;;5039110;28;20021;-82
2022/07/18 06:35:47;;;;;;;7.57;1.60;;;21.60;80.60;;;;;;5057295;28;20035;-82
2022/07/18 06:38:15;;;;;;;14.15;1.85;;;21.70;80.00;;;;;;5039392;28;20010;-83
2022/07/18 06:40:41;;;;;;;4.90;1.50;;;21.70;79.20;;;;;;5057296;28;20013;-83
2022/07/18 06:43:07;;;;;;;5.70;1.70;;;21.70;80.90;;;;;;5057610;28;20014;-83
2022/07/18 06:45:33;;;;;;;8.98;2.42;;;21.70;79.70;;;;;;5058039;28;20025;-83
2022/07/18 06:47:59;;;;;;;9.27;2.15;;;21.80;79.60;;;;;;5057971;28;20041;-81
2022/07/18 06:50:25;;;;;;;11.75;1.83;;;21.90;79.40;;;;;;5039941;28;20084;-82
2022/07/18 06:52:51;;;;;;;13.48;2.00;;;22.00;78.60;;;;;;5024018;28;20182;-81
2022/07/18 06:55:17;;;;;;;6.95;2.08;;;22.00;78.50;;;;;;5057571;28;20013;-84
2022/07/18 06:57:44;;;;;;;4.93;1.33;;;22.10;78.50;;;;;;5040705;28;20028;-83
2022/07/18 07:00:13;;;;;;;8.38;1.73;;;22.10;79.30;;;;;;5058328;28;20081;-83
2022/07/18 07:02:46;;;;;;;8.57;1.70;;;22.20;78.00;;;;;;5057693;28;20040;-85
2022/07/18 07:05:14;;;;;;;5.32;1.48;;;22.10;79.40;;;;;;5055664;28;20085;-84
2022/07/18 07:07:41;;;;;;;9.85;1.90;;;22.20;79.00;;;;;;5034993;28;20022;-84
2022/07/18 07:10:07;;;;;;;9.82;1.80;;;22.40;76.80;;;;;;5034835;28;20034;-84
2022/07/18 07:12:40;;;;;;;8.75;2.03;;;22.60;76.70;;;;;;5036583;28;20053;-86
2022/07/18 07:15:08;;;;;;;8.95;1.40;;;22.50;76.40;;;;;;5036361;28;20025;-83
2022/07/18 07:17:36;;;;;;;7.65;2.08;;;22.40;76.10;;;;;;5053191;28;20056;-83
2022/07/18 07:20:04;;;;;;;6.30;2.13;;;22.40;75.60;;;;;;5035897;28;20025;-84
2022/07/18 07:22:30;;;;;;;8.23;1.73;;;22.30;76.40;;;;;;5051252;28;20100;-85
2022/07/18 07:24:56;;;;;;;8.10;1.80;;;22.30;76.10;;;;;;5046305;28;20436;-84
2022/07/18 07:27:22;;;;;;;5.38;1.98;;;22.40;76.40;;;;;;5046125;28;20029;-84
2022/07/18 07:29:47;;;;;;;7.47;1.95;;;22.50;76.90;;;;;;5046129;28;20040;-85
2022/07/18 07:32:13;;;;;;;10.88;2.30;;;22.50;76.00;;;;;;5046276;28;20040;-85
2022/07/18 07:34:39;;;;;;;6.60;1.80;;;22.60;76.40;;;;;;5045159;28;20045;-85
2022/07/18 07:37:05;;;;;;;7.88;2.10;;;22.70;76.30;;;;;;5028092;28;20072;-85
2022/07/18 07:39:31;;;;;;;6.22;1.60;;;22.90;75.10;;;;;;5045525;28;20040;-85
2022/07/18 07:41:57;;;;;;;9.52;2.45;;;23.00;75.40;;;;;;5046761;28;20512;-84
2022/07/18 07:44:22;;;;;;;6.05;1.60;;;23.00;74.50;;;;;;5045326;28;20056;-85
2022/07/18 07:46:49;;;;;;;5.72;1.90;;;23.10;74.30;;;;;;5040866;28;20063;-85
2022/07/18 07:49:15;;;;;;;10.40;1.50;;;23.10;74.50;;;;;;5017460;28;20034;-84
2022/07/18 07:51:41;;;;;;;5.50;1.90;;;23.00;73.40;;;;;;5043701;28;20048;-83
2022/07/18 07:54:06;;;;;;;4.72;1.60;;;23.00;74.70;;;;;;5004412;28;20034;-82
2022/07/18 07:56:32;;;;;;;8.85;1.50;;;23.00;73.10;;;;;;4990349;28;20037;-84
2022/07/18 07:58:59;;;;;;;6.40;1.55;;;23.10;74.40;;;;;;4993498;28;20042;-83
2022/07/18 08:01:25;;;;;;;9.75;2.15;;;23.20;74.80;;;;;;5001043;28;20120;-84
2022/07/18 08:03:51;;;;;;;6.55;2.22;;;23.30;73.00;;;;;;5004966;28;20026;-85
2022/07/18 08:06:17;;;;;;;4.57;1.50;;;23.40;72.80;;;;;;5005015;28;20022;-84
2022/07/18 08:08:43;;;;;;;8.02;1.90;;;23.50;72.90;;;;;;5017901;28;20044;-85
2022/07/18 08:11:09;;;;;;;8.82;2.05;;;23.60;73.50;;;;;;5033991;28;20014;-82
2022/07/18 08:13:34;;;;;;;10.00;2.03;;;23.60;73.90;;;;;;5016980;28;20126;-84
2022/07/18 08:16:00;;;;;;;5.68;1.67;;;23.70;72.20;;;;;;5011656;28;20030;-83
2022/07/18 08:18:26;;;;;;;5.78;1.63;;;23.70;73.80;;;;;;5023807;28;20030;-85
2022/07/18 08:20:52;;;;;;;14.00;1.92;;;23.70;73.10;;;;;;5012129;28;20029;-85
2022/07/18 08:23:18;;;;;;;4.97;1.67;;;23.70;71.70;;;;;;5015947;28;20033;-85
2022/07/18 08:25:45;;;;;;;6.10;1.48;;;23.70;72.20;;;;;;5037425;28;20018;-82
2022/07/18 08:28:12;;;;;;;9.85;1.70;;;23.90;70.60;;;;;;5037380;28;20026;-81
2022/07/18 08:30:38;;;;;;;5.57;1.60;;;24.00;70.80;;;;;;5020173;28;20044;-84
2022/07/18 08:33:05;;;;;;;6.22;1.80;;;24.10;70.90;;;;;;5037124;28;20030;-82
2022/07/18 08:35:32;;;;;;;5.57;1.63;;;24.10;72.40;;;;;;5036280;28;20034;-83
2022/07/18 08:37:59;;;;;;;11.05;1.88;;;24.10;71.30;;;;;;4997742;28;20052;-83
2022/07/18 08:40:25;;;;;;;7.38;1.80;;;24.20;71.40;;;;;;5026778;28;20034;-84
2022/07/18 08:42:53;;;;;;;9.18;1.67;;;24.20;70.50;;;;;;5025468;28;20038;-83
2022/07/18 08:45:24;;;;;;;2.92;1.33;;;24.30;70.90;;;;;;5015226;28;20022;-87
2022/07/18 08:47:50;;;;;;;23.58;2.50;;;24.30;68.90;;;;;;5019547;28;20033;-87
2022/07/18 08:50:17;;;;;;;10.65;1.95;;;24.40;67.10;;;;;;5018340;28;20030;-87
2022/07/18 08:52:44;;;;;;;11.52;1.98;;;24.50;66.40;;;;;;5020085;28;20038;-88
2022/07/18 08:55:11;;;;;;;11.43;1.85;;;24.60;66.10;;;;;;5040823;28;20034;-89
2022/07/18 08:57:37;;;;;;;10.55;1.85;;;24.60;66.60;;;;;;5059408;28;20041;-89
2022/07/18 09:00:05;;;;;;;3.65;1.50;;;24.60;64.80;;;;;;5044407;28;20021;-86
2022/07/18 09:02:31;;;;;;;3.63;1.15;;;24.70;63.00;;;;;;5044793;28;20082;-87
2022/07/18 09:05:18;;;;;;;8.75;1.63;;;24.70;63.70;;;;;;5037802;28;20077;-89
2022/07/18 09:07:44;;;;;;;6.00;1.27;;;24.70;63.10;;;;;;5024314;28;20022;-87
2022/07/18 09:10:10;;;;;;;6.95;1.40;;;24.80;62.10;;;;;;5024097;28;20085;-87
2022/07/18 09:12:36;;;;;;;6.00;1.25;;;24.80;61.50;;;;;;5023748;28;20064;-87
2022/07/18 09:15:10;;;;;;;11.55;1.60;;;24.80;60.50;;;;;;5022279;28;20076;-88
2022/07/18 09:17:36;;;;;;;11.35;1.75;;;24.90;61.80;;;;;;5046633;22;20048;-84
2022/07/18 09:20:16;;;;;;;6.75;1.60;;;25.00;62.10;;;;;;5021591;28;20041;-84
2022/07/18 09:22:47;;;;;;;10.63;2.00;;;25.00;62.80;;;;;;5021586;28;20040;-84
2022/07/18 09:25:19;;;;;;;8.13;1.40;;;25.00;62.60;;;;;;5009612;28;20041;-83
2022/07/18 09:27:47;;;;;;;12.63;1.83;;;24.90;63.00;;;;;;5023192;28;20037;-82
2022/07/18 09:30:32;;;;;;;13.82;2.00;;;24.90;62.90;;;;;;5028327;28;20084;-83
2022/07/18 09:33:03;;;;;;;12.85;1.77;;;25.00;62.40;;;;;;5022060;28;20038;-84
2022/07/18 09:35:41;;;;;;;10.60;1.63;;;24.80;62.00;;;;;;5024319;28;20042;-83
2022/07/18 09:38:10;;;;;;;11.23;1.90;;;24.80;62.00;;;;;;5020746;28;20014;-84
2022/07/18 09:40:54;;;;;;;14.43;1.92;;;25.10;62.40;;;;;;5022747;28;20006;-85
2022/07/18 09:43:22;;;;;;;15.02;2.55;;;25.30;62.10;;;;;;5029571;28;20046;-84
2022/07/18 09:45:54;;;;;;;8.55;1.40;;;25.50;61.20;;;;;;4994804;28;20033;-84
2022/07/18 09:48:24;;;;;;;16.65;2.10;;;26.00;60.60;;;;;;5009864;28;20030;-84
2022/07/18 09:51:00;;;;;;;10.80;1.83;;;26.50;60.50;;;;;;5022384;28;20033;-85
2022/07/18 09:53:35;;;;;;;3.88;1.35;;;26.70;60.20;;;;;;5022079;28;20089;-84
2022/07/18 09:56:21;;;;;;;4.57;1.85;;;27.30;59.90;;;;;;5016191;28;20108;-84
2022/07/18 09:58:56;;;;;;;5.45;1.92;;;28.10;59.50;;;;;;5001284;28;20030;-85
2022/07/18 10:01:23;;;;;;;4.97;1.40;;;28.40;57.40;;;;;;5002005;28;20045;-84
2022/07/18 10:03:49;;;;;;;8.00;1.40;;;29.00;56.80;;;;;;5002787;28;20430;-85
2022/07/18 10:06:16;;;;;;;5.20;1.52;;;29.80;55.50;;;;;;5003995;28;20092;-86
2022/07/18 10:08:42;;;;;;;7.63;1.20;;;31.20;54.70;;;;;;5004705;28;20122;-86
2022/07/18 10:11:08;;;;;;;4.50;1.70;;;32.10;52.70;;;;;;5003856;28;20387;-85
2022/07/18 10:13:36;;;;;;;4.63;1.65;;;33.20;51.10;;;;;;4984955;28;20034;-84
2022/07/18 10:16:03;;;;;;;7.97;1.40;;;34.20;49.40;;;;;;4984432;28;20127;-85
2022/07/18 10:18:31;;;;;;;3.90;1.70;;;35.60;45.50;;;;;;5010780;28;20034;-83
2022/07/18 10:21:01;;;;;;;6.22;1.50;;;36.80;44.00;;;;;;5001605;28;20053;-82
2022/07/18 10:23:38;;;;;;;3.75;1.23;;;37.20;42.90;;;;;;5021806;28;20364;-82
2022/07/18 10:26:19;;;;;;;5.82;1.35;;;37.80;42.20;;;;;;5033660;28;20026;-81
2022/07/18 10:29:00;;;;;;;6.47;1.65;;;38.00;41.70;;;;;;5018835;28;20018;-85
2022/07/18 10:31:27;;;;;;;9.73;1.92;;;37.90;40.50;;;;;;5045536;28;20061;-85
2022/07/18 10:34:06;;;;;;;14.95;1.92;;;39.00;40.10;;;;;;5028230;28;20034;-85
2022/07/18 10:36:36;;;;;;;8.52;1.45;;;40.20;39.50;;;;;;5014438;28;20038;-84
2022/07/18 10:39:02;;;;;;;7.07;1.30;;;41.70;38.50;;;;;;5034127;28;20030;-85
2022/07/18 10:41:28;;;;;;;4.00;1.58;;;41.90;37.80;;;;;;5029900;28;20049;-87
2022/07/18 10:43:54;;;;;;;5.25;1.50;;;40.60;37.00;;;;;;5013448;28;20052;-84
2022/07/18 10:46:21;;;;;;;4.75;1.50;;;40.10;37.50;;;;;;5017248;28;20061;-86
2022/07/18 10:48:52;;;;;;;6.70;1.35;;;40.40;37.00;;;;;;5025797;28;20085;-86
2022/07/18 10:51:18;;;;;;;6.55;1.10;;;40.50;36.70;;;;;;5005777;28;20034;-85
2022/07/18 10:53:59;;;;;;;6.70;1.50;;;39.50;36.40;;;;;;5005388;28;20114;-85
2022/07/18 10:56:28;;;;;;;7.28;1.88;;;39.00;36.40;;;;;;5011048;28;20037;-85
2022/07/18 10:58:57;;;;;;;5.60;1.35;;;38.60;37.10;;;;;;4996553;28;20049;-86
2022/07/18 11:01:24;;;;;;;7.93;1.45;;;39.00;36.40;;;;;;5012033;28;20489;-84
2022/07/18 11:04:10;;;;;;;3.50;1.30;;;40.20;36.10;;;;;;4994340;28;20026;-83
2022/07/18 11:06:55;;;;;;;4.68;1.33;;;42.40;35.80;;;;;;5011988;28;20030;-86
2022/07/18 11:09:40;;;;;;;4.20;1.50;;;43.60;35.10;;;;;;4995181;28;20386;-85
2022/07/18 11:12:24;;;;;;;9.98;1.48;;;43.70;35.00;;;;;;5011375;28;20026;-85
2022/07/18 11:15:00;;;;;;;6.07;1.50;;;43.20;34.60;;;;;;5018031;28;20089;-84
2022/07/18 11:17:53;;;;;;;9.82;1.30;;;41.80;34.90;;;;;;5016642;28;20041;-84
2022/07/18 11:20:37;;;;;;;3.42;1.30;;;40.90;35.10;;;;;;5028935;28;20045;-85
2022/07/18 11:23:13;;;;;;;4.85;1.35;;;40.00;35.40;;;;;;4995269;28;20088;-84
2022/07/18 11:25:40;;;;;;;4.82;1.20;;;39.90;35.80;;;;;;5016075;28;20053;-83
2022/07/18 11:28:10;;;;;;;8.30;1.50;;;40.00;35.50;;;;;;5018458;28;20033;-83
2022/07/18 11:30:37;;;;;;;4.78;1.42;;;41.80;35.10;;;;;;5004545;28;20073;-85
2022/07/18 11:33:04;;;;;;;1.75;1.20;;;43.40;34.50;;;;;;5023552;28;20037;-86
2022/07/18 11:35:30;;;;;;;6.95;1.90;;;43.90;34.10;;;;;;5013067;28;20030;-83
2022/07/18 11:38:03;;;;;;;4.22;1.35;;;43.70;33.70;;;;;;5009921;28;20096;-84
2022/07/18 11:40:29;;;;;;;8.13;1.10;;;44.60;33.30;;;;;;5010853;28;20065;-84
2022/07/18 11:42:56;;;;;;;4.65;1.27;;;44.40;33.00;;;;;;5011323;28;20279;-84
2022/07/18 11:45:22;;;;;;;4.03;1.50;;;43.30;33.50;;;;;;5013200;28;20030;-84
2022/07/18 11:47:51;;;;;;;6.35;1.50;;;43.60;33.70;;;;;;4996905;28;20165;-84
2022/07/18 11:50:26;;;;;;;5.97;1.73;;;44.20;33.10;;;;;;5033030;28;20499;-86
2022/07/18 11:52:57;;;;;;;5.78;1.35;;;43.50;33.00;;;;;;5013065;28;20086;-84
2022/07/18 11:55:38;;;;;;;4.40;1.50;;;42.50;33.10;;;;;;5010611;28;20030;-84
2022/07/18 11:58:11;;;;;;;5.25;1.48;;;44.20;32.70;;;;;;5015623;28;20350;-83
2022/07/18 12:00:37;;;;;;;4.15;1.48;;;44.70;33.10;;;;;;5010357;28;20045;-85
2022/07/18 12:03:05;;;;;;;4.07;1.77;;;45.10;32.40;;;;;;5013004;28;20340;-85
2022/07/18 12:06:02;;;;;;;2.88;1.45;;;45.10;32.10;;;;;;5016371;28;20022;-84
2022/07/18 12:08:38;;;;;;;7.57;1.48;;;46.00;32.10;;;;;;4982197;28;20038;-83
2022/07/18 12:11:14;;;;;;;2.60;1.10;;;46.20;31.80;;;;;;5010008;28;20034;-84
2022/07/18 12:13:48;;;;;;;3.13;1.50;;;46.80;31.70;;;;;;5012419;28;20030;-83
2022/07/18 12:16:39;;;;;;;4.55;1.30;;;46.80;31.60;;;;;;4991644;28;20041;-85
2022/07/18 12:19:11;;;;;;;6.32;1.40;;;46.20;31.30;;;;;;5009705;28;20057;-84
2022/07/18 12:21:56;;;;;;;4.93;1.13;;;44.50;31.40;;;;;;5011268;28;20022;-85
2022/07/18 12:24:24;;;;;;;2.63;1.38;;;43.70;31.70;;;;;;5011571;28;20482;-85
2022/07/18 12:27:32;;;;;;;2.97;1.40;;;44.20;32.20;;;;;;5012095;28;20518;-84
2022/07/18 12:30:18;;;;;;;2.50;1.27;;;44.80;31.60;;;;;;4988167;28;20042;-85
2022/07/18 12:32:52;;;;;;;3.75;1.08;;;43.00;31.80;;;;;;5012573;28;20121;-84
2022/07/18 12:35:31;;;;;;;10.32;1.33;;;42.20;32.60;;;;;;5012213;28;20110;-86
2022/07/18 12:38:06;;;;;;;7.65;1.38;;;43.40;32.40;;;;;;5013897;28;20093;-85
2022/07/18 12:40:45;;;;;;;3.58;1.25;;;45.10;31.60;;;;;;4996299;28;20401;-85
2022/07/18 12:43:14;;;;;;;6.75;1.35;;;45.00;31.10;;;;;;5017353;28;20085;-84
2022/07/18 12:45:41;;;;;;;6.75;1.52;;;45.60;31.20;;;;;;5007361;28;20030;-85
2022/07/18 12:48:10;;;;;;;11.63;1.73;;;45.30;31.30;;;;;;4984875;28;20086;-85
2022/07/18 12:50:37;;;;;;;8.88;1.52;;;45.80;31.10;;;;;;5009788;28;20374;-85
2022/07/18 12:53:03;;;;;;;5.53;1.38;;;44.50;31.00;;;;;;4993196;28;20030;-86